sensor_id;sensor_type;location;lat;lon;timestamp;P1;durP1;ratioP1;P2;durP2;ratioP2
81725;SDS011;71135;16.738;-14.648;2024-02-15T00:01:20;12.52;;;4.70;;
81725;SDS011;71135;16.738;-14.648;2024-02-15T00:03:49;14.63;;;4.70;;
81725;SDS011;71135;16.738;-14.648;2024-02-15T00:06:20;19.00;;;4.80;;
81725;SDS011;71135;16.738;-14.648;2024-02-15T00:08:52;16.17;;;4.53;;
81725;SDS011;71135;16.738;-14.648;2024-02-15T00:11:21;13.80;;;4.07;;
81725;SDS011;71135;16.738;-14.648;2024-02-15T00:13:50;13.55;;;4.15;;
81725;SDS011;71135;16.738;-14.648;2024-02-15T00:16:21;12.73;;;4.22;;
81725;SDS011;71135;16.738;-14.648;2024-02-15T00:18:50;12.27;;;3.95;;
81725;SDS011;71135;16.738;-14.648;2024-02-15T00:21:20;13.23;;;4.15;;
81725;SDS011;71135;16.738;-14.648;2024-02-15T00:23:52;21.92;;;4.90;;
81725;SDS011;71135;16.738;-14.648;2024-02-15T00:26:22;13.82;;;4.00;;
81725;SDS011;71135;16.738;-14.648;2024-02-15T00:28:52;11.10;;;3.83;;
81725;SDS011;71135;16.738;-14.648;2024-02-15T00:31:21;18.02;;;4.70;;
81725;SDS011;71135;16.738;-14.648;2024-02-15T00:33:50;12.88;;;4.47;;
81725;SDS011;71135;16.738;-14.648;2024-02-15T00:36:19;15.68;;;4.45;;
81725;SDS011;71135;16.738;-14.648;2024-02-15T00:38:53;11.85;;;4.15;;
81725;SDS011;71135;16.738;-14.648;2024-02-15T00:41:25;16.30;;;4.35;;
81725;SDS011;71135;16.738;-14.648;2024-02-15T00:43:59;21.83;;;5.32;;
81725;SDS011;71135;16.738;-14.648;2024-02-15T00:46:29;16.33;;;4.82;;
81725;SDS011;71135;16.738;-14.648;2024-02-15T00:49:01;21.85;;;5.80;;
81725;SDS011;71135;16.738;-14.648;2024-02-15T00:51:37;17.58;;;5.32;;
81725;SDS011;71135;16.738;-14.648;2024-02-15T00:54:18;18.63;;;5.18;;
81725;SDS011;71135;16.738;-14.648;2024-02-15T00:56:51;19.20;;;5.88;;
81725;SDS011;71135;16.738;-14.648;2024-02-15T00:59:20;16.38;;;5.38;;
81725;SDS011;71135;16.738;-14.648;2024-02-15T01:01:49;16.58;;;5.03;;
81725;SDS011;71135;16.738;-14.648;2024-02-15T01:04:21;23.55;;;5.28;;
81725;SDS011;71135;16.738;-14.648;2024-02-15T01:06:50;21.40;;;4.57;;
81725;SDS011;71135;16.738;-14.648;2024-02-15T01:09:25;16.40;;;4.70;;
81725;SDS011;71135;16.738;-14.648;2024-02-15T01:11:57;17.38;;;4.38;;
81725;SDS011;71135;16.738;-14.648;2024-02-15T01:20:13;12.23;;;4.28;;
81725;SDS011;71135;16.738;-14.648;2024-02-15T01:22:42;12.32;;;4.30;;
81725;SDS011;71135;16.738;-14.648;2024-02-15T01:25:14;18.88;;;4.80;;
81725;SDS011;71135;16.738;-14.648;2024-02-15T01:33:32;14.55;;;4.47;;
81725;SDS011;71135;16.738;-14.648;2024-02-15T01:36:02;15.70;;;4.90;;
81725;SDS011;71135;16.738;-14.648;2024-02-15T01:38:32;20.13;;;5.68;;
81725;SDS011;71135;16.738;-14.648;2024-02-15T01:41:04;17.25;;;5.78;;
81725;SDS011;71135;16.738;-14.648;2024-02-15T01:43:33;16.08;;;6.40;;
81725;SDS011;71135;16.738;-14.648;2024-02-15T01:46:04;16.45;;;6.90;;
81725;SDS011;71135;16.738;-14.648;2024-02-15T01:48:37;23.48;;;7.07;;
81725;SDS011;71135;16.738;-14.648;2024-02-15T01:51:08;16.77;;;8.57;;
81725;SDS011;71135;16.738;-14.648;2024-02-15T01:53:40;12.95;;;6.05;;
81725;SDS011;71135;16.738;-14.648;2024-02-15T01:56:14;17.20;;;7.05;;
81725;SDS011;71135;16.738;-14.648;2024-02-15T01:58:46;15.25;;;5.80;;
81725;SDS011;71135;16.738;-14.648;2024-02-15T02:04:34;13.80;;;5.28;;
81725;SDS011;71135;16.738;-14.648;2024-02-15T02:10:21;11.23;;;5.18;;
81725;SDS011;71135;16.738;-14.648;2024-02-15T02:12:52;18.20;;;5.40;;
81725;SDS011;71135;16.738;-14.648;2024-02-15T02:15:22;16.38;;;5.60;;
81725;SDS011;71135;16.738;-14.648;2024-02-15T02:17:51;15.20;;;5.15;;
81725;SDS011;71135;16.738;-14.648;2024-02-15T02:20:20;11.68;;;5.40;;
81725;SDS011;71135;16.738;-14.648;2024-02-15T02:22:49;12.73;;;5.45;;
81725;SDS011;71135;16.738;-14.648;2024-02-15T02:25:23;15.20;;;5.88;;
81725;SDS011;71135;16.738;-14.648;2024-02-15T02:27:54;17.95;;;6.07;;
81725;SDS011;71135;16.738;-14.648;2024-02-15T02:30:24;14.88;;;6.00;;
81725;SDS011;71135;16.738;-14.648;2024-02-15T02:32:55;14.07;;;6.30;;
81725;SDS011;71135;16.738;-14.648;2024-02-15T02:35:24;14.93;;;5.82;;
81725;SDS011;71135;16.738;-14.648;2024-02-15T02:37:56;12.82;;;6.55;;
81725;SDS011;71135;16.738;-14.648;2024-02-15T02:40:28;17.30;;;6.32;;
81725;SDS011;71135;16.738;-14.648;2024-02-15T02:42:59;16.00;;;6.72;;
81725;SDS011;71135;16.738;-14.648;2024-02-15T02:49:03;17.50;;;6.30;;
81725;SDS011;71135;16.738;-14.648;2024-02-15T02:51:33;18.60;;;7.88;;
81725;SDS011;71135;16.738;-14.648;2024-02-15T02:54:02;13.18;;;6.72;;
81725;SDS011;71135;16.738;-14.648;2024-02-15T02:56:37;18.33;;;7.85;;
81725;SDS011;71135;16.738;-14.648;2024-02-15T02:59:06;19.30;;;7.18;;
81725;SDS011;71135;16.738;-14.648;2024-02-15T03:01:35;14.20;;;7.28;;
81725;SDS011;71135;16.738;-14.648;2024-02-15T03:04:05;17.02;;;7.45;;
81725;SDS011;71135;16.738;-14.648;2024-02-15T03:06:34;20.35;;;7.97;;
81725;SDS011;71135;16.738;-14.648;2024-02-15T03:09:03;15.18;;;7.43;;
81725;SDS011;71135;16.738;-14.648;2024-02-15T03:11:37;16.77;;;7.07;;
81725;SDS011;71135;16.738;-14.648;2024-02-15T03:14:07;17.98;;;7.72;;
81725;SDS011;71135;16.738;-14.648;2024-02-15T03:16:36;19.67;;;8.07;;
81725;SDS011;71135;16.738;-14.648;2024-02-15T03:19:06;15.38;;;6.57;;
81725;SDS011;71135;16.738;-14.648;2024-02-15T03:21:37;14.75;;;7.35;;
81725;SDS011;71135;16.738;-14.648;2024-02-15T03:24:07;16.17;;;7.13;;
81725;SDS011;71135;16.738;-14.648;2024-02-15T03:26:39;15.95;;;7.40;;
81725;SDS011;71135;16.738;-14.648;2024-02-15T03:29:08;18.55;;;7.97;;
81725;SDS011;71135;16.738;-14.648;2024-02-15T03:31:37;20.02;;;8.43;;
81725;SDS011;71135;16.738;-14.648;2024-02-15T03:34:06;17.02;;;8.00;;
81725;SDS011;71135;16.738;-14.648;2024-02-15T03:36:36;18.35;;;8.23;;
81725;SDS011;71135;16.738;-14.648;2024-02-15T03:42:26;18.73;;;9.88;;
81725;SDS011;71135;16.738;-14.648;2024-02-15T03:48:14;21.40;;;9.88;;
81725;SDS011;71135;16.738;-14.648;2024-02-15T03:50:43;21.58;;;10.80;;
81725;SDS011;71135;16.738;-14.648;2024-02-15T03:53:13;22.65;;;11.50;;
81725;SDS011;71135;16.738;-14.648;2024-02-15T03:55:43;22.40;;;10.55;;
81725;SDS011;71135;16.738;-14.648;2024-02-15T03:58:14;22.60;;;10.57;;
81725;SDS011;71135;16.738;-14.648;2024-02-15T04:00:44;25.63;;;10.98;;
81725;SDS011;71135;16.738;-14.648;2024-02-15T04:03:14;21.40;;;10.65;;
81725;SDS011;71135;16.738;-14.648;2024-02-15T04:08:27;20.50;;;10.60;;
81725;SDS011;71135;16.738;-14.648;2024-02-15T04:14:17;22.42;;;10.40;;
81725;SDS011;71135;16.738;-14.648;2024-02-15T04:16:47;19.67;;;9.82;;
81725;SDS011;71135;16.738;-14.648;2024-02-15T04:19:16;21.98;;;9.57;;
81725;SDS011;71135;16.738;-14.648;2024-02-15T04:21:47;21.30;;;10.02;;
81725;SDS011;71135;16.738;-14.648;2024-02-15T04:24:17;21.48;;;9.88;;
81725;SDS011;71135;16.738;-14.648;2024-02-15T04:26:47;19.50;;;9.07;;
81725;SDS011;71135;16.738;-14.648;2024-02-15T04:29:19;22.23;;;9.68;;
81725;SDS011;71135;16.738;-14.648;2024-02-15T04:31:49;20.98;;;9.35;;
81725;SDS011;71135;16.738;-14.648;2024-02-15T04:34:20;17.70;;;9.18;;
81725;SDS011;71135;16.738;-14.648;2024-02-15T04:36:49;15.27;;;7.93;;
81725;SDS011;71135;16.738;-14.648;2024-02-15T04:39:18;22.05;;;8.93;;
81725;SDS011;71135;16.738;-14.648;2024-02-15T04:41:50;22.35;;;9.30;;
81725;SDS011;71135;16.738;-14.648;2024-02-15T04:44:21;15.98;;;8.00;;
81725;SDS011;71135;16.738;-14.648;2024-02-15T04:46:52;22.33;;;9.55;;
81725;SDS011;71135;16.738;-14.648;2024-02-15T04:49:22;16.05;;;8.02;;
81725;SDS011;71135;16.738;-14.648;2024-02-15T04:51:51;16.15;;;8.32;;
81725;SDS011;71135;16.738;-14.648;2024-02-15T04:54:20;19.65;;;8.00;;
81725;SDS011;71135;16.738;-14.648;2024-02-15T04:56:50;22.92;;;8.75;;
81725;SDS011;71135;16.738;-14.648;2024-02-15T04:59:22;15.23;;;7.90;;
81725;SDS011;71135;16.738;-14.648;2024-02-15T05:01:52;16.52;;;7.75;;
81725;SDS011;71135;16.738;-14.648;2024-02-15T05:04:22;20.25;;;7.80;;
81725;SDS011;71135;16.738;-14.648;2024-02-15T05:06:51;15.00;;;8.00;;
81725;SDS011;71135;16.738;-14.648;2024-02-15T05:09:21;19.73;;;7.47;;
81725;SDS011;71135;16.738;-14.648;2024-02-15T05:11:51;15.57;;;8.63;;
81725;SDS011;71135;16.738;-14.648;2024-02-15T05:14:23;20.77;;;8.00;;
81725;SDS011;71135;16.738;-14.648;2024-02-15T05:16:52;21.20;;;8.30;;
81725;SDS011;71135;16.738;-14.648;2024-02-15T05:19:21;14.48;;;7.40;;
81725;SDS011;71135;16.738;-14.648;2024-02-15T05:21:50;15.18;;;8.18;;
81725;SDS011;71135;16.738;-14.648;2024-02-15T05:24:20;15.20;;;8.10;;
81725;SDS011;71135;16.738;-14.648;2024-02-15T05:26:49;19.30;;;9.05;;
81725;SDS011;71135;16.738;-14.648;2024-02-15T05:29:19;19.05;;;7.88;;
81725;SDS011;71135;16.738;-14.648;2024-02-15T05:31:51;22.85;;;9.05;;
81725;SDS011;71135;16.738;-14.648;2024-02-15T05:34:22;16.50;;;8.65;;
81725;SDS011;71135;16.738;-14.648;2024-02-15T05:36:51;20.25;;;9.32;;
81725;SDS011;71135;16.738;-14.648;2024-02-15T05:39:20;22.17;;;9.05;;
81725;SDS011;71135;16.738;-14.648;2024-02-15T05:41:50;20.08;;;9.73;;
81725;SDS011;71135;16.738;-14.648;2024-02-15T05:44:22;23.23;;;9.90;;
81725;SDS011;71135;16.738;-14.648;2024-02-15T05:46:51;23.67;;;10.45;;
81725;SDS011;71135;16.738;-14.648;2024-02-15T05:49:21;25.52;;;10.45;;
81725;SDS011;71135;16.738;-14.648;2024-02-15T05:51:51;17.25;;;8.85;;
81725;SDS011;71135;16.738;-14.648;2024-02-15T05:54:20;22.83;;;9.75;;
81725;SDS011;71135;16.738;-14.648;2024-02-15T05:56:51;18.48;;;9.63;;
81725;SDS011;71135;16.738;-14.648;2024-02-15T05:59:23;17.88;;;8.75;;
81725;SDS011;71135;16.738;-14.648;2024-02-15T06:01:52;20.17;;;10.27;;
81725;SDS011;71135;16.738;-14.648;2024-02-15T06:04:21;26.08;;;9.80;;
81725;SDS011;71135;16.738;-14.648;2024-02-15T06:06:52;24.05;;;10.70;;
81725;SDS011;71135;16.738;-14.648;2024-02-15T06:09:24;21.92;;;9.75;;
81725;SDS011;71135;16.738;-14.648;2024-02-15T06:11:56;18.15;;;8.40;;
81725;SDS011;71135;16.738;-14.648;2024-02-15T06:14:28;19.42;;;9.18;;
81725;SDS011;71135;16.738;-14.648;2024-02-15T06:16:57;21.52;;;10.05;;
81725;SDS011;71135;16.738;-14.648;2024-02-15T06:19:28;25.75;;;10.52;;
81725;SDS011;71135;16.738;-14.648;2024-02-15T06:21:58;22.55;;;10.20;;
81725;SDS011;71135;16.738;-14.648;2024-02-15T06:24:27;21.35;;;10.40;;
81725;SDS011;71135;16.738;-14.648;2024-02-15T06:26:56;21.20;;;10.80;;
81725;SDS011;71135;16.738;-14.648;2024-02-15T06:29:30;20.23;;;10.32;;
81725;SDS011;71135;16.738;-14.648;2024-02-15T06:32:11;18.75;;;9.43;;
81725;SDS011;71135;16.738;-14.648;2024-02-15T06:34:53;23.38;;;11.05;;
81725;SDS011;71135;16.738;-14.648;2024-02-15T06:37:34;21.88;;;11.07;;
81725;SDS011;71135;16.738;-14.648;2024-02-15T06:40:16;24.05;;;11.05;;
81725;SDS011;71135;16.738;-14.648;2024-02-15T06:42:45;19.40;;;10.40;;
81725;SDS011;71135;16.738;-14.648;2024-02-15T06:45:17;23.60;;;11.35;;
81725;SDS011;71135;16.738;-14.648;2024-02-15T06:47:47;24.05;;;11.32;;
81725;SDS011;71135;16.738;-14.648;2024-02-15T06:50:16;22.33;;;11.18;;
81725;SDS011;71135;16.738;-14.648;2024-02-15T06:52:45;22.50;;;11.15;;
81725;SDS011;71135;16.738;-14.648;2024-02-15T06:55:15;27.77;;;12.00;;
81725;SDS011;71135;16.738;-14.648;2024-02-15T06:57:45;21.75;;;12.10;;
81725;SDS011;71135;16.738;-14.648;2024-02-15T07:00:14;22.67;;;12.05;;
81725;SDS011;71135;16.738;-14.648;2024-02-15T07:02:46;23.00;;;11.77;;
81725;SDS011;71135;16.738;-14.648;2024-02-15T07:05:16;22.42;;;10.95;;
81725;SDS011;71135;16.738;-14.648;2024-02-15T07:07:45;22.17;;;11.38;;
81725;SDS011;71135;16.738;-14.648;2024-02-15T07:10:14;25.10;;;11.20;;
81725;SDS011;71135;16.738;-14.648;2024-02-15T07:12:43;23.40;;;10.55;;
81725;SDS011;71135;16.738;-14.648;2024-02-15T07:15:13;24.65;;;11.70;;
81725;SDS011;71135;16.738;-14.648;2024-02-15T07:17:42;22.40;;;11.38;;
81725;SDS011;71135;16.738;-14.648;2024-02-15T07:20:14;21.15;;;10.85;;
81725;SDS011;71135;16.738;-14.648;2024-02-15T07:22:44;25.27;;;11.77;;
81725;SDS011;71135;16.738;-14.648;2024-02-15T07:25:13;23.80;;;12.55;;
81725;SDS011;71135;16.738;-14.648;2024-02-15T07:27:43;25.20;;;12.07;;
81725;SDS011;71135;16.738;-14.648;2024-02-15T07:30:13;25.30;;;13.07;;
81725;SDS011;71135;16.738;-14.648;2024-02-15T07:32:43;25.38;;;12.43;;
81725;SDS011;71135;16.738;-14.648;2024-02-15T07:35:14;25.52;;;13.30;;
81725;SDS011;71135;16.738;-14.648;2024-02-15T07:37:51;22.30;;;11.57;;
81725;SDS011;71135;16.738;-14.648;2024-02-15T07:40:24;19.20;;;11.63;;
81725;SDS011;71135;16.738;-14.648;2024-02-15T07:42:55;20.88;;;11.38;;
81725;SDS011;71135;16.738;-14.648;2024-02-15T07:45:25;22.67;;;11.50;;
81725;SDS011;71135;16.738;-14.648;2024-02-15T07:47:55;25.27;;;11.82;;
81725;SDS011;71135;16.738;-14.648;2024-02-15T07:50:26;23.70;;;11.82;;
81725;SDS011;71135;16.738;-14.648;2024-02-15T07:52:56;23.73;;;11.55;;
81725;SDS011;71135;16.738;-14.648;2024-02-15T07:55:25;24.02;;;12.32;;
81725;SDS011;71135;16.738;-14.648;2024-02-15T07:57:54;21.60;;;11.13;;
81725;SDS011;71135;16.738;-14.648;2024-02-15T08:00:25;20.48;;;11.52;;
81725;SDS011;71135;16.738;-14.648;2024-02-15T08:02:55;24.17;;;11.02;;
81725;SDS011;71135;16.738;-14.648;2024-02-15T08:05:28;19.15;;;10.13;;
81725;SDS011;71135;16.738;-14.648;2024-02-15T08:07:57;20.38;;;9.38;;
81725;SDS011;71135;16.738;-14.648;2024-02-15T08:10:27;20.58;;;9.35;;
81725;SDS011;71135;16.738;-14.648;2024-02-15T08:12:56;19.42;;;10.00;;
81725;SDS011;71135;16.738;-14.648;2024-02-15T08:15:26;16.83;;;9.20;;
81725;SDS011;71135;16.738;-14.648;2024-02-15T08:17:55;15.45;;;8.48;;
81725;SDS011;71135;16.738;-14.648;2024-02-15T08:20:25;16.13;;;7.70;;
81725;SDS011;71135;16.738;-14.648;2024-02-15T08:22:59;17.15;;;8.68;;
81725;SDS011;71135;16.738;-14.648;2024-02-15T08:25:29;15.07;;;6.95;;
81725;SDS011;71135;16.738;-14.648;2024-02-15T08:27:59;13.68;;;7.18;;
81725;SDS011;71135;16.738;-14.648;2024-02-15T08:30:31;10.38;;;6.72;;
81725;SDS011;71135;16.738;-14.648;2024-02-15T08:33:00;12.40;;;6.63;;
81725;SDS011;71135;16.738;-14.648;2024-02-15T08:35:29;11.45;;;5.53;;
81725;SDS011;71135;16.738;-14.648;2024-02-15T08:38:01;9.40;;;5.72;;
81725;SDS011;71135;16.738;-14.648;2024-02-15T08:40:31;11.30;;;6.05;;
81725;SDS011;71135;16.738;-14.648;2024-02-15T08:43:00;8.73;;;5.40;;
81725;SDS011;71135;16.738;-14.648;2024-02-15T08:45:30;8.77;;;5.43;;
81725;SDS011;71135;16.738;-14.648;2024-02-15T08:48:00;9.90;;;5.30;;
81725;SDS011;71135;16.738;-14.648;2024-02-15T08:50:30;10.07;;;5.75;;
81725;SDS011;71135;16.738;-14.648;2024-02-15T08:53:02;8.68;;;5.10;;
81725;SDS011;71135;16.738;-14.648;2024-02-15T08:55:33;11.27;;;5.18;;
81725;SDS011;71135;16.738;-14.648;2024-02-15T08:58:02;9.68;;;4.75;;
81725;SDS011;71135;16.738;-14.648;2024-02-15T09:00:32;9.32;;;4.90;;
81725;SDS011;71135;16.738;-14.648;2024-02-15T09:03:01;9.52;;;4.88;;
81725;SDS011;71135;16.738;-14.648;2024-02-15T09:05:30;9.13;;;4.80;;
81725;SDS011;71135;16.738;-14.648;2024-02-15T09:08:03;8.80;;;4.65;;
81725;SDS011;71135;16.738;-14.648;2024-02-15T09:10:32;10.82;;;5.07;;
81725;SDS011;71135;16.738;-14.648;2024-02-15T09:13:02;8.23;;;4.28;;
81725;SDS011;71135;16.738;-14.648;2024-02-15T09:15:31;7.65;;;4.63;;
81725;SDS011;71135;16.738;-14.648;2024-02-15T09:18:01;8.95;;;4.70;;
81725;SDS011;71135;16.738;-14.648;2024-02-15T09:20:31;8.95;;;4.78;;
81725;SDS011;71135;16.738;-14.648;2024-02-15T09:23:02;7.88;;;4.65;;
81725;SDS011;71135;16.738;-14.648;2024-02-15T09:25:38;7.53;;;4.60;;
81725;SDS011;71135;16.738;-14.648;2024-02-15T09:28:08;7.25;;;4.45;;
81725;SDS011;71135;16.738;-14.648;2024-02-15T09:30:39;7.03;;;3.83;;
81725;SDS011;71135;16.738;-14.648;2024-02-15T09:33:08;7.45;;;4.10;;
81725;SDS011;71135;16.738;-14.648;2024-02-15T09:35:37;6.60;;;4.30;;
81725;SDS011;71135;16.738;-14.648;2024-02-15T09:38:09;7.18;;;3.92;;
81725;SDS011;71135;16.738;-14.648;2024-02-15T09:40:42;5.82;;;3.05;;
81725;SDS011;71135;16.738;-14.648;2024-02-15T09:43:13;5.13;;;3.63;;
81725;SDS011;71135;16.738;-14.648;2024-02-15T09:45:42;4.35;;;2.70;;
81725;SDS011;71135;16.738;-14.648;2024-02-15T09:48:11;4.40;;;2.72;;
81725;SDS011;71135;16.738;-14.648;2024-02-15T09:50:43;4.28;;;2.72;;
81725;SDS011;71135;16.738;-14.648;2024-02-15T09:53:18;3.88;;;2.60;;
81725;SDS011;71135;16.738;-14.648;2024-02-15T09:55:51;2.97;;;2.60;;
81725;SDS011;71135;16.738;-14.648;2024-02-15T09:58:29;4.53;;;2.80;;
81725;SDS011;71135;16.738;-14.648;2024-02-15T10:01:00;3.60;;;2.75;;
81725;SDS011;71135;16.738;-14.648;2024-02-15T10:03:35;5.72;;;3.13;;
81725;SDS011;71135;16.738;-14.648;2024-02-15T10:06:06;6.00;;;3.33;;
81725;SDS011;71135;16.738;-14.648;2024-02-15T10:08:38;4.47;;;3.20;;
81725;SDS011;71135;16.738;-14.648;2024-02-15T10:11:07;4.55;;;3.22;;
81725;SDS011;71135;16.738;-14.648;2024-02-15T10:13:37;6.22;;;3.95;;
81725;SDS011;71135;16.738;-14.648;2024-02-15T10:16:16;7.07;;;3.55;;
81725;SDS011;71135;16.738;-14.648;2024-02-15T10:18:50;13.32;;;4.30;;
81725;SDS011;71135;16.738;-14.648;2024-02-15T10:21:24;7.25;;;4.50;;
81725;SDS011;71135;16.738;-14.648;2024-02-15T10:24:05;9.20;;;4.43;;
81725;SDS011;71135;16.738;-14.648;2024-02-15T10:26:35;6.65;;;4.45;;
81725;SDS011;71135;16.738;-14.648;2024-02-15T10:29:08;12.15;;;4.95;;
81725;SDS011;71135;16.738;-14.648;2024-02-15T10:31:38;12.40;;;5.53;;
81725;SDS011;71135;16.738;-14.648;2024-02-15T10:34:08;9.68;;;5.47;;
81725;SDS011;71135;16.738;-14.648;2024-02-15T10:36:40;9.90;;;6.03;;
81725;SDS011;71135;16.738;-14.648;2024-02-15T10:39:16;10.13;;;6.03;;
81725;SDS011;71135;16.738;-14.648;2024-02-15T10:41:46;13.32;;;6.80;;
81725;SDS011;71135;16.738;-14.648;2024-02-15T10:44:16;9.65;;;5.90;;
81725;SDS011;71135;16.738;-14.648;2024-02-15T10:46:47;9.27;;;6.25;;
81725;SDS011;71135;16.738;-14.648;2024-02-15T10:49:18;12.50;;;6.60;;
81725;SDS011;71135;16.738;-14.648;2024-02-15T10:51:50;11.95;;;6.63;;
81725;SDS011;71135;16.738;-14.648;2024-02-15T10:54:27;12.98;;;7.30;;
81725;SDS011;71135;16.738;-14.648;2024-02-15T10:57:06;13.27;;;7.18;;
81725;SDS011;71135;16.738;-14.648;2024-02-15T10:59:38;11.60;;;6.57;;
81725;SDS011;71135;16.738;-14.648;2024-02-15T11:02:23;12.77;;;6.55;;
81725;SDS011;71135;16.738;-14.648;2024-02-15T11:04:58;12.57;;;6.13;;
81725;SDS011;71135;16.738;-14.648;2024-02-15T11:07:30;9.82;;;6.55;;
81725;SDS011;71135;16.738;-14.648;2024-02-15T11:10:04;11.45;;;6.80;;
81725;SDS011;71135;16.738;-14.648;2024-02-15T11:12:36;11.93;;;6.72;;
81725;SDS011;71135;16.738;-14.648;2024-02-15T11:15:08;14.30;;;6.95;;
81725;SDS011;71135;16.738;-14.648;2024-02-15T11:17:45;12.68;;;6.70;;
81725;SDS011;71135;16.738;-14.648;2024-02-15T11:23:25;14.35;;;7.57;;
81725;SDS011;71135;16.738;-14.648;2024-02-15T11:25:58;15.23;;;7.50;;
81725;SDS011;71135;16.738;-14.648;2024-02-15T11:28:37;13.57;;;8.50;;
81725;SDS011;71135;16.738;-14.648;2024-02-15T11:43:46;13.82;;;7.45;;
81725;SDS011;71135;16.738;-14.648;2024-02-15T11:46:15;14.35;;;7.95;;
81725;SDS011;71135;16.738;-14.648;2024-02-15T11:48:46;13.75;;;7.28;;
81725;SDS011;71135;16.738;-14.648;2024-02-15T11:51:26;14.88;;;7.70;;
81725;SDS011;71135;16.738;-14.648;2024-02-15T11:54:02;12.57;;;7.00;;
81725;SDS011;71135;16.738;-14.648;2024-02-15T11:56:56;11.10;;;7.25;;
81725;SDS011;71135;16.738;-14.648;2024-02-15T11:59:39;12.30;;;7.30;;
81725;SDS011;71135;16.738;-14.648;2024-02-15T12:02:41;15.07;;;7.10;;
81725;SDS011;71135;16.738;-14.648;2024-02-15T12:05:23;12.20;;;7.10;;
81725;SDS011;71135;16.738;-14.648;2024-02-15T12:08:04;14.20;;;6.85;;
81725;SDS011;71135;16.738;-14.648;2024-02-15T12:10:56;21.02;;;7.65;;
81725;SDS011;71135;16.738;-14.648;2024-02-15T12:13:40;16.92;;;8.23;;
81725;SDS011;71135;16.738;-14.648;2024-02-15T12:16:22;14.05;;;7.13;;
81725;SDS011;71135;16.738;-14.648;2024-02-15T12:19:03;17.50;;;7.63;;
81725;SDS011;71135;16.738;-14.648;2024-02-15T12:21:36;15.95;;;8.00;;
81725;SDS011;71135;16.738;-14.648;2024-02-15T12:24:07;15.90;;;6.88;;
81725;SDS011;71135;16.738;-14.648;2024-02-15T12:26:37;14.45;;;7.85;;
81725;SDS011;71135;16.738;-14.648;2024-02-15T12:29:09;13.27;;;7.75;;
81725;SDS011;71135;16.738;-14.648;2024-02-15T12:31:39;11.65;;;7.30;;
81725;SDS011;71135;16.738;-14.648;2024-02-15T12:34:10;13.65;;;7.57;;
81725;SDS011;71135;16.738;-14.648;2024-02-15T12:36:42;16.38;;;7.80;;
81725;SDS011;71135;16.738;-14.648;2024-02-15T12:39:11;16.55;;;7.93;;
81725;SDS011;71135;16.738;-14.648;2024-02-15T12:41:47;15.75;;;7.53;;
81725;SDS011;71135;16.738;-14.648;2024-02-15T12:44:19;18.50;;;8.60;;
81725;SDS011;71135;16.738;-14.648;2024-02-15T12:46:53;18.50;;;8.38;;
81725;SDS011;71135;16.738;-14.648;2024-02-15T12:49:29;15.00;;;8.43;;
81725;SDS011;71135;16.738;-14.648;2024-02-15T12:55:06;14.48;;;7.60;;
81725;SDS011;71135;16.738;-14.648;2024-02-15T12:57:36;13.48;;;7.88;;
81725;SDS011;71135;16.738;-14.648;2024-02-15T13:00:37;11.05;;;6.78;;
81725;SDS011;71135;16.738;-14.648;2024-02-15T13:03:19;16.33;;;8.35;;
81725;SDS011;71135;16.738;-14.648;2024-02-15T13:05:49;16.20;;;7.70;;
81725;SDS011;71135;16.738;-14.648;2024-02-15T13:08:18;13.60;;;7.57;;
81725;SDS011;71135;16.738;-14.648;2024-02-15T13:10:48;16.58;;;7.95;;
81725;SDS011;71135;16.738;-14.648;2024-02-15T13:13:17;13.93;;;7.55;;
81725;SDS011;71135;16.738;-14.648;2024-02-15T13:15:51;14.70;;;7.70;;
81725;SDS011;71135;16.738;-14.648;2024-02-15T13:18:20;11.63;;;7.50;;
81725;SDS011;71135;16.738;-14.648;2024-02-15T13:20:50;12.77;;;7.30;;
81725;SDS011;71135;16.738;-14.648;2024-02-15T13:23:19;15.23;;;7.00;;
81725;SDS011;71135;16.738;-14.648;2024-02-15T13:25:51;13.45;;;7.82;;
81725;SDS011;71135;16.738;-14.648;2024-02-15T13:28:22;14.43;;;6.75;;
81725;SDS011;71135;16.738;-14.648;2024-02-15T13:30:54;14.88;;;7.35;;
81725;SDS011;71135;16.738;-14.648;2024-02-15T13:33:23;12.65;;;7.25;;
81725;SDS011;71135;16.738;-14.648;2024-02-15T13:35:57;16.77;;;7.03;;
81725;SDS011;71135;16.738;-14.648;2024-02-15T13:38:26;12.98;;;7.38;;
81725;SDS011;71135;16.738;-14.648;2024-02-15T13:40:56;12.80;;;7.63;;
81725;SDS011;71135;16.738;-14.648;2024-02-15T13:43:28;16.17;;;7.68;;
81725;SDS011;71135;16.738;-14.648;2024-02-15T13:46:00;11.27;;;6.95;;
81725;SDS011;71135;16.738;-14.648;2024-02-15T13:48:30;12.43;;;7.82;;
81725;SDS011;71135;16.738;-14.648;2024-02-15T13:50:59;10.73;;;6.80;;
81725;SDS011;71135;16.738;-14.648;2024-02-15T13:53:29;11.45;;;7.25;;
81725;SDS011;71135;16.738;-14.648;2024-02-15T13:55:58;10.82;;;6.90;;
81725;SDS011;71135;16.738;-14.648;2024-02-15T13:58:27;9.57;;;7.00;;
81725;SDS011;71135;16.738;-14.648;2024-02-15T14:00:56;9.93;;;6.35;;
81725;SDS011;71135;16.738;-14.648;2024-02-15T14:03:32;12.23;;;7.20;;
81725;SDS011;71135;16.738;-14.648;2024-02-15T14:06:01;10.75;;;6.93;;
81725;SDS011;71135;16.738;-14.648;2024-02-15T14:08:30;11.68;;;6.53;;
81725;SDS011;71135;16.738;-14.648;2024-02-15T14:10:59;9.15;;;5.53;;
81725;SDS011;71135;16.738;-14.648;2024-02-15T14:13:28;7.90;;;6.05;;
81725;SDS011;71135;16.738;-14.648;2024-02-15T14:31:22;8.68;;;5.20;;
81725;SDS011;71135;16.738;-14.648;2024-02-15T14:34:05;7.50;;;4.90;;
81725;SDS011;71135;16.738;-14.648;2024-02-15T14:36:54;10.82;;;4.78;;
81725;SDS011;71135;16.738;-14.648;2024-02-15T14:42:32;8.20;;;4.55;;
81725;SDS011;71135;16.738;-14.648;2024-02-15T14:45:33;8.70;;;4.57;;
81725;SDS011;71135;16.738;-14.648;2024-02-15T14:51:35;11.05;;;4.22;;
81725;SDS011;71135;16.738;-14.648;2024-02-15T14:54:05;6.18;;;3.28;;
81725;SDS011;71135;16.738;-14.648;2024-02-15T14:56:35;7.30;;;3.30;;
81725;SDS011;71135;16.738;-14.648;2024-02-15T14:59:06;5.68;;;3.50;;
81725;SDS011;71135;16.738;-14.648;2024-02-15T15:01:35;7.38;;;4.63;;
81725;SDS011;71135;16.738;-14.648;2024-02-15T15:04:06;7.43;;;3.72;;
81725;SDS011;71135;16.738;-14.648;2024-02-15T15:06:40;7.70;;;3.55;;
81725;SDS011;71135;16.738;-14.648;2024-02-15T15:09:25;7.18;;;3.25;;
81725;SDS011;71135;16.738;-14.648;2024-02-15T15:12:07;5.60;;;2.50;;
81725;SDS011;71135;16.738;-14.648;2024-02-15T15:14:48;7.45;;;2.53;;
81725;SDS011;71135;16.738;-14.648;2024-02-15T15:17:17;5.45;;;2.17;;
81725;SDS011;71135;16.738;-14.648;2024-02-15T15:19:47;3.80;;;2.30;;
81725;SDS011;71135;16.738;-14.648;2024-02-15T15:22:19;6.78;;;2.83;;
81725;SDS011;71135;16.738;-14.648;2024-02-15T15:24:49;6.65;;;2.70;;
81725;SDS011;71135;16.738;-14.648;2024-02-15T15:27:28;6.18;;;2.63;;
81725;SDS011;71135;16.738;-14.648;2024-02-15T15:29:57;9.07;;;2.83;;
81725;SDS011;71135;16.738;-14.648;2024-02-15T15:32:26;6.68;;;3.17;;
81725;SDS011;71135;16.738;-14.648;2024-02-15T15:34:56;6.20;;;2.70;;
81725;SDS011;71135;16.738;-14.648;2024-02-15T15:37:28;6.15;;;3.03;;
81725;SDS011;71135;16.738;-14.648;2024-02-15T15:39:57;7.90;;;2.92;;
81725;SDS011;71135;16.738;-14.648;2024-02-15T15:42:26;7.88;;;3.22;;
81725;SDS011;71135;16.738;-14.648;2024-02-15T15:44:55;5.93;;;3.10;;
81725;SDS011;71135;16.738;-14.648;2024-02-15T15:47:22;7.85;;;2.88;;
81725;SDS011;71135;16.738;-14.648;2024-02-15T15:49:51;4.88;;;2.95;;